Time;durP1;ratioP1;P1;durP2;ratioP2;P2;SDS_P1;SDS_P2;PMS_P1;PMS_P2;Temp;Humidity;BMP_temperature;BMP_pressure;BME280_temperature;BME280_humidity;BME280_pressure;Samples;Min_cycle;Max_cycle;Signal;HPM_P1;HPM_P2
2021/07/01 00:00:57;;;;;;;9.20;2.83;;;;;;;20.73;55.93;96880.81;5054338;28;20075;-61
2021/07/01 00:03:23;;;;;;;10.30;2.88;;;;;;;20.72;55.82;96875.56;5055094;28;20059;-61
2021/07/01 00:05:48;;;;;;;9.18;3.05;;;;;;;20.65;56.45;96874.66;5054509;28;20441;-62
2021/07/01 00:08:14;;;;;;;10.88;3.13;;;;;;;20.64;56.55;96873.78;5054906;28;20100;-60
2021/07/01 00:10:39;;;;;;;6.65;2.70;;;;;;;20.54;56.80;96873.31;5054028;28;20441;-62
2021/07/01 00:13:05;;;;;;;7.70;2.70;;;;;;;20.34;57.30;96868.53;5056156;28;20025;-61
2021/07/01 00:15:32;;;;;;;11.23;3.10;;;;;;;20.23;57.63;96871.81;5053793;28;20032;-61
2021/07/01 00:17:59;;;;;;;8.20;2.83;;;;;;;20.01;58.41;96868.22;5055543;28;20025;-60
2021/07/01 00:20:25;;;;;;;10.48;3.28;;;;;;;19.93;58.55;96873.81;5055413;28;20025;-60
2021/07/01 00:22:51;;;;;;;10.23;2.90;;;;;;;19.98;58.00;96879.53;5054290;28;20158;-61
2021/07/01 00:25:17;;;;;;;7.78;2.55;;;;;;;19.96;57.88;96871.50;5055497;28;20537;-61
2021/07/01 00:27:43;;;;;;;10.75;2.58;;;;;;;20.10;57.65;96868.94;5055734;28;20100;-60
2021/07/01 00:30:10;;;;;;;7.95;2.40;;;;;;;20.28;57.24;96865.72;5054176;28;20480;-60
2021/07/01 00:32:36;;;;;;;10.82;2.70;;;;;;;20.20;57.18;96867.56;5055612;28;20110;-61
2021/07/01 00:35:02;;;;;;;8.95;2.70;;;;;;;20.08;57.93;96871.84;5054079;28;20598;-61
2021/07/01 00:37:29;;;;;;;9.55;3.00;;;;;;;19.98;57.92;96872.19;5055393;28;20096;-61
2021/07/01 00:39:55;;;;;;;7.55;2.80;;;;;;;20.15;57.44;96875.50;5055394;28;20025;-62
2021/07/01 00:42:21;;;;;;;11.27;2.85;;;;;;;20.23;57.05;96872.63;5053201;28;20120;-61
2021/07/01 00:44:46;;;;;;;7.35;2.70;;;;;;;20.21;57.49;96873.88;5054517;28;20192;-61
2021/07/01 00:47:12;;;;;;;7.32;2.53;;;;;;;20.22;57.43;96883.75;5054975;28;20373;-61
2021/07/01 00:49:37;;;;;;;7.40;2.90;;;;;;;20.20;57.21;96883.09;5053421;28;20138;-60
2021/07/01 00:52:03;;;;;;;9.48;2.80;;;;;;;20.24;57.11;96882.53;5052908;28;20025;-60
2021/07/01 00:54:29;;;;;;;6.10;2.53;;;;;;;20.23;57.11;96885.44;5033058;28;20049;-63
2021/07/01 00:56:54;;;;;;;7.32;3.15;;;;;;;20.18;56.68;96883.28;5032840;28;20437;-61
2021/07/01 00:59:20;;;;;;;6.50;2.60;;;;;;;20.15;56.87;96880.09;5031541;28;20033;-62
2021/07/01 01:01:46;;;;;;;9.48;2.78;;;;;;;20.06;57.17;96877.50;5048401;28;20444;-61
2021/07/01 01:04:11;;;;;;;5.45;2.47;;;;;;;19.90;57.87;96875.88;5052551;28;20083;-61
2021/07/01 01:06:38;;;;;;;5.97;2.60;;;;;;;19.69;58.46;96875.81;5053765;28;20100;-61
2021/07/01 01:09:06;;;;;;;6.47;2.88;;;;;;;19.80;57.96;96877.19;5054527;28;20029;-60
2021/07/01 01:11:32;;;;;;;5.90;2.80;;;;;;;19.76;58.17;96878.63;5046843;28;20523;-61
2021/07/01 01:13:58;;;;;;;7.40;2.63;;;;;;;19.77;58.40;96875.69;5052665;28;20237;-60
2021/07/01 01:16:23;;;;;;;7.00;2.63;;;;;;;19.86;58.26;96871.00;5052349;28;20065;-61
2021/07/01 01:18:49;;;;;;;5.20;2.80;;;;;;;19.89;57.71;96885.09;5052190;28;20580;-61
2021/07/01 01:21:15;;;;;;;9.73;2.80;;;;;;;19.86;57.85;96882.75;5051013;28;20504;-61
2021/07/01 01:23:41;;;;;;;6.97;2.40;;;;;;;19.88;57.72;96877.97;5052112;28;20043;-61
2021/07/01 01:26:07;;;;;;;9.13;2.95;;;;;;;19.92;57.57;96883.03;5052612;28;20025;-61
2021/07/01 01:28:32;;;;;;;11.23;2.92;;;;;;;19.94;57.72;96875.50;5048609;28;20025;-62
2021/07/01 01:30:58;;;;;;;8.55;2.63;;;;;;;19.93;57.57;96873.81;5034056;28;20036;-61
2021/07/01 01:33:24;;;;;;;6.75;2.40;;;;;;;19.73;58.43;96879.84;5047411;28;20369;-60
2021/07/01 01:35:50;;;;;;;9.57;2.85;;;;;;;19.46;58.78;96876.81;5054043;28;20028;-61
2021/07/01 01:38:17;;;;;;;7.25;2.50;;;;;;;19.63;58.72;96877.44;5054289;28;20025;-61
2021/07/01 01:40:44;;;;;;;7.40;2.55;;;;;;;19.76;58.40;96878.63;5054175;28;20021;-61
2021/07/01 01:43:12;;;;;;;8.48;2.65;;;;;;;19.74;58.17;96887.00;5053826;28;20408;-60
2021/07/01 01:45:38;;;;;;;7.47;2.40;;;;;;;19.66;58.53;96882.50;5041733;28;20031;-60
2021/07/01 01:48:04;;;;;;;7.30;2.40;;;;;;;19.67;58.75;96881.47;5033859;28;20026;-61
2021/07/01 01:50:29;;;;;;;7.07;2.70;;;;;;;19.67;58.43;96878.75;5032236;28;20083;-61
2021/07/01 01:52:55;;;;;;;9.10;2.47;;;;;;;19.55;58.60;96872.13;5031728;28;20021;-60
2021/07/01 01:55:21;;;;;;;8.18;2.67;;;;;;;19.45;58.71;96866.09;5031751;28;20105;-60
2021/07/01 01:57:48;;;;;;;7.75;2.75;;;;;;;19.52;58.91;96867.88;5030470;28;20444;-59
2021/07/01 02:00:17;;;;;;;10.32;2.78;;;;;;;19.39;58.90;96862.28;5030418;28;20038;-60
2021/07/01 02:02:43;;;;;;;7.13;2.63;;;;;;;19.38;59.32;96860.56;5030383;28;20032;-61
2021/07/01 02:05:09;;;;;;;6.93;2.80;;;;;;;19.28;59.56;96869.06;5032847;28;20026;-61
2021/07/01 02:07:35;;;;;;;9.38;2.97;;;;;;;19.36;59.57;96868.94;5051955;28;20059;-61
2021/07/01 02:10:03;;;;;;;7.03;2.58;;;;;;;19.29;59.91;96867.16;5053617;28;20392;-61
2021/07/01 02:12:30;;;;;;;8.45;2.70;;;;;;;19.00;60.44;96860.69;5054308;28;20037;-62
2021/07/01 02:14:56;;;;;;;5.70;2.60;;;;;;;18.84;61.13;96867.16;5053707;28;20028;-62
2021/07/01 02:17:21;;;;;;;8.30;2.80;;;;;;;18.90;61.06;96867.28;5052447;28;20024;-61
2021/07/01 02:19:47;;;;;;;6.80;2.47;;;;;;;19.06;60.22;96868.13;5032138;28;20109;-61
2021/07/01 02:22:12;;;;;;;7.18;2.38;;;;;;;19.18;59.92;96863.06;5033327;28;20041;-61
2021/07/01 02:24:38;;;;;;;8.82;2.67;;;;;;;19.22;60.07;96862.47;5033740;28;20119;-61
2021/07/01 02:27:04;;;;;;;8.52;2.63;;;;;;;19.19;59.98;96860.13;5065330;28;20025;-61
2021/07/01 02:29:29;;;;;;;7.78;2.60;;;;;;;19.23;59.53;96863.34;5033467;28;20108;-60
2021/07/01 02:31:54;;;;;;;6.55;2.50;;;;;;;19.21;60.08;96863.53;5033519;28;20029;-61
2021/07/01 02:34:20;;;;;;;8.63;2.60;;;;;;;18.94;60.87;96869.66;5033530;28;20512;-61
2021/07/01 02:36:45;;;;;;;9.77;2.83;;;;;;;18.84;61.23;96873.47;5033824;28;20025;-61
2021/07/01 02:39:11;;;;;;;9.38;2.72;;;;;;;18.75;61.69;96874.59;5031754;28;20026;-61
2021/07/01 02:41:36;;;;;;;9.25;2.90;;;;;;;18.85;61.27;96883.34;5033240;28;20085;-62
2021/07/01 02:44:03;;;;;;;7.78;2.55;;;;;;;18.72;61.88;96873.06;5035278;28;20028;-62
2021/07/01 02:46:28;;;;;;;10.70;2.75;;;;;;;18.76;61.66;96875.41;5046926;28;20033;-61
2021/07/01 02:48:54;;;;;;;7.47;2.60;;;;;;;18.80;61.89;96883.03;5052974;28;20484;-60
2021/07/01 02:51:19;;;;;;;7.80;2.58;;;;;;;18.97;61.60;96878.28;5038724;28;20029;-60
2021/07/01 02:53:44;;;;;;;11.35;2.60;;;;;;;19.06;61.37;96874.41;5038267;28;20036;-62
2021/07/01 02:56:10;;;;;;;9.63;2.80;;;;;;;19.05;61.29;96883.66;5052910;28;20529;-62
2021/07/01 02:58:35;;;;;;;8.82;2.63;;;;;;;18.99;61.71;96878.09;5053169;28;20391;-61
2021/07/01 03:01:01;;;;;;;9.90;2.60;;;;;;;19.00;61.54;96880.63;5053293;28;20036;-61
2021/07/01 03:03:26;;;;;;;9.02;2.63;;;;;;;19.03;61.46;96879.41;5051683;28;20033;-60
2021/07/01 03:05:51;;;;;;;10.63;2.75;;;;;;;18.97;61.99;96881.00;5052812;28;20025;-60
2021/07/01 03:08:17;;;;;;;10.00;3.20;;;;;;;18.92;61.72;96888.03;5051192;28;20155;-61
2021/07/01 03:10:42;;;;;;;12.13;2.90;;;;;;;18.96;62.01;96890.22;5040255;28;20025;-62
2021/07/01 03:13:08;;;;;;;7.25;2.58;;;;;;;18.85;62.30;96887.91;5052927;28;20040;-62
2021/07/01 03:15:33;;;;;;;10.32;2.85;;;;;;;18.85;62.11;96887.91;5053368;28;20136;-61
2021/07/01 03:17:59;;;;;;;7.68;2.70;;;;;;;18.83;62.40;96887.28;5051527;28;20110;-62
2021/07/01 03:20:24;;;;;;;8.18;2.80;;;;;;;18.83;62.60;96881.81;5050636;28;20025;-61
2021/07/01 03:22:50;;;;;;;9.02;2.95;;;;;;;18.72;62.69;96878.53;5050501;28;20029;-61
2021/07/01 03:25:15;;;;;;;11.13;3.03;;;;;;;18.74;62.74;96887.34;5050528;28;20056;-61
2021/07/01 03:27:40;;;;;;;11.00;3.05;;;;;;;18.68;62.82;96888.09;5050562;28;20017;-62
2021/07/01 03:30:06;;;;;;;11.52;2.70;;;;;;;18.69;63.27;96884.34;5050400;28;20031;-60
2021/07/01 03:32:32;;;;;;;14.73;2.88;;;;;;;18.60;63.43;96888.19;5050482;28;20057;-61
2021/07/01 03:34:57;;;;;;;8.93;2.95;;;;;;;18.65;63.52;96893.06;5052523;28;20025;-61
2021/07/01 03:37:22;;;;;;;10.32;2.83;;;;;;;18.69;63.25;96897.09;5052520;28;20060;-61
2021/07/01 03:39:48;;;;;;;11.50;2.88;;;;;;;18.66;63.14;96894.75;5052541;28;20396;-61
2021/07/01 03:42:13;;;;;;;11.68;3.22;;;;;;;18.52;63.66;96888.25;5049202;28;20033;-62
2021/07/01 03:44:39;;;;;;;12.50;2.80;;;;;;;18.59;63.58;96889.22;5051044;28;20443;-61
2021/07/01 03:47:06;;;;;;;9.05;2.80;;;;;;;18.66;63.34;96883.88;5051272;28;20025;-61
2021/07/01 03:49:32;;;;;;;14.82;2.90;;;;;;;18.70;63.07;96879.75;5053396;28;20021;-62
2021/07/01 03:51:57;;;;;;;11.88;3.17;;;;;;;18.77;63.17;96879.84;5056350;28;20029;-61
2021/07/01 03:54:23;;;;;;;13.98;2.78;;;;;;;18.74;63.29;96884.63;5055920;28;20029;-60
2021/07/01 03:56:48;;;;;;;12.00;3.15;;;;;;;18.76;63.17;96887.19;5056354;28;20028;-61
2021/07/01 03:59:14;;;;;;;9.13;2.80;;;;;;;18.66;64.21;96887.44;5055786;28;20021;-61
2021/07/01 04:01:41;;;;;;;6.75;2.50;;;;;;;18.44;65.19;96882.88;5054643;28;20060;-60
2021/07/01 04:04:07;;;;;;;16.35;3.17;;;;;;;18.64;64.27;96889.50;5054884;28;20025;-60
2021/07/01 04:06:33;;;;;;;15.40;2.92;;;;;;;18.75;63.82;96888.19;5056045;28;20483;-61
2021/07/01 04:08:59;;;;;;;12.85;3.08;;;;;;;18.68;63.78;96885.38;5055926;28;20025;-62
2021/07/01 04:11:25;;;;;;;10.75;2.63;;;;;;;18.73;63.89;96890.25;5055676;28;20029;-62
2021/07/01 04:13:50;;;;;;;13.38;2.97;;;;;;;18.78;63.72;96886.97;5055677;28;20032;-62
2021/07/01 04:16:15;;;;;;;12.80;3.10;;;;;;;18.71;64.32;96898.63;5054032;28;20025;-62
2021/07/01 04:18:41;;;;;;;11.02;2.83;;;;;;;18.49;65.50;96888.63;5054353;28;20036;-61
2021/07/01 04:21:06;;;;;;;12.05;2.80;;;;;;;18.45;65.52;96882.69;5055806;28;20028;-62
2021/07/01 04:23:32;;;;;;;19.15;3.80;;;;;;;18.52;65.26;96883.66;5048946;28;20065;-62
2021/07/01 04:25:58;;;;;;;10.52;2.92;;;;;;;18.69;64.78;96880.75;5043513;28;20040;-62
2021/07/01 04:28:23;;;;;;;12.15;2.88;;;;;;;18.66;64.86;96887.44;5045742;28;20021;-61
2021/07/01 04:30:49;;;;;;;17.13;2.90;;;;;;;18.82;64.49;96883.69;5053640;28;20024;-61
2021/07/01 04:33:15;;;;;;;10.43;2.60;;;;;;;18.84;64.36;96887.09;5054499;28;20032;-61
2021/07/01 04:35:47;;;;;;;14.27;3.13;;;;;;;18.75;65.30;96885.47;5055204;28;20029;-61
2021/07/01 04:38:13;;;;;;;11.05;2.80;;;;;;;18.73;65.56;96888.41;5053905;28;20115;-61
2021/07/01 04:40:38;;;;;;;11.23;2.80;;;;;;;18.77;65.54;96886.13;5053731;28;20099;-61
2021/07/01 04:43:03;;;;;;;10.05;3.10;;;;;;;18.81;65.55;96883.88;5054581;28;20060;-61
2021/07/01 04:45:29;;;;;;;14.02;3.00;;;;;;;18.88;64.90;96877.53;5049007;28;20036;-62
2021/07/01 04:47:54;;;;;;;13.75;3.00;;;;;;;18.93;64.75;96876.13;5054418;28;20017;-62
2021/07/01 04:50:20;;;;;;;11.50;2.70;;;;;;;18.88;64.65;96876.63;5053061;28;20025;-62
2021/07/01 04:52:45;;;;;;;15.73;3.05;;;;;;;18.90;65.13;96888.25;5036585;28;20400;-61
2021/07/01 04:55:11;;;;;;;15.18;3.42;;;;;;;18.78;66.03;96885.09;5054092;28;20107;-61
2021/07/01 04:57:36;;;;;;;11.50;3.55;;;;;;;18.76;66.08;96881.72;5054140;28;20021;-61
2021/07/01 05:00:03;;;;;;;13.70;2.92;;;;;;;18.73;66.30;96887.53;5054323;28;20044;-61
2021/07/01 05:02:28;;;;;;;11.65;3.38;;;;;;;18.83;65.71;96885.38;5050085;28;20037;-61
2021/07/01 05:04:54;;;;;;;14.45;3.47;;;;;;;18.81;65.79;96887.44;5050744;28;20034;-61
2021/07/01 05:07:19;;;;;;;16.05;3.00;;;;;;;18.90;65.24;96885.50;5052337;28;20062;-62
2021/07/01 05:09:44;;;;;;;11.68;3.05;;;;;;;18.96;65.18;96890.22;5053814;28;20029;-61
2021/07/01 05:12:10;;;;;;;13.02;2.90;;;;;;;18.99;65.05;96891.72;5039071;28;20137;-61
2021/07/01 05:14:35;;;;;;;11.02;2.60;;;;;;;18.92;65.16;96898.94;5033401;28;20112;-61
2021/07/01 05:17:01;;;;;;;11.77;2.63;;;;;;;18.95;65.38;96891.25;5034593;28;20033;-61
2021/07/01 05:19:26;;;;;;;12.85;3.20;;;;;;;18.93;65.29;96895.19;5043776;28;20108;-60
2021/07/01 05:21:51;;;;;;;13.32;2.90;;;;;;;19.02;64.13;96888.63;5054238;28;20032;-60
2021/07/01 05:24:17;;;;;;;14.35;3.25;;;;;;;19.07;64.23;96892.47;5053949;28;20094;-60
2021/07/01 05:26:42;;;;;;;10.23;3.00;;;;;;;19.05;64.93;96886.38;5054067;28;20136;-61
2021/07/01 05:29:08;;;;;;;12.00;2.90;;;;;;;19.07;64.80;96888.91;5054305;28;20059;-60
2021/07/01 05:31:33;;;;;;;10.55;3.45;;;;;;;18.98;65.00;96887.31;5052994;28;20524;-61
2021/07/01 05:34:00;;;;;;;13.98;2.75;;;;;;;18.98;64.35;96887.31;5054166;28;20033;-61
2021/07/01 05:36:25;;;;;;;23.73;3.28;;;;;;;19.10;65.79;96893.97;5052792;28;21507;-61
2021/07/01 05:38:50;;;;;;;12.50;2.80;;;;;;;19.15;65.78;96899.72;5053849;28;20025;-61
2021/07/01 05:41:16;;;;;;;11.18;3.05;;;;;;;19.19;65.81;96892.84;5053960;28;20146;-61
2021/07/01 05:43:41;;;;;;;12.82;3.35;;;;;;;19.28;64.67;96892.72;5053677;28;20029;-62
2021/07/01 05:46:07;;;;;;;8.00;2.70;;;;;;;19.33;63.89;96884.84;5053819;28;20029;-62
2021/07/01 05:48:32;;;;;;;9.68;2.38;;;;;;;19.34;63.38;96892.81;5053513;28;20506;-61
2021/07/01 05:51:03;;;;;;;11.52;2.75;;;;;;;19.35;63.55;96893.69;5045151;28;20036;-62
2021/07/01 05:53:37;;;;;;;11.48;2.65;;;;;;;19.33;63.49;96903.91;5039164;28;20025;-61
2021/07/01 05:56:03;;;;;;;11.82;2.97;;;;;;;19.42;63.60;96894.59;5051531;28;20096;-61
2021/07/01 05:58:28;;;;;;;12.77;2.88;;;;;;;19.55;63.32;96900.22;5034018;28;20107;-61
2021/07/01 06:00:54;;;;;;;11.50;2.50;;;;;;;19.55;62.94;96899.38;5031654;28;20021;-62
2021/07/01 06:03:19;;;;;;;12.40;3.22;;;;;;;19.67;62.06;96894.25;5036482;28;20037;-62
2021/07/01 06:05:51;;;;;;;9.40;2.67;;;;;;;19.80;61.47;96901.75;5044610;28;20022;-62
2021/07/01 06:08:17;;;;;;;11.23;2.65;;;;;;;19.93;61.13;96909.28;5033351;28;20040;-62
2021/07/01 06:10:43;;;;;;;10.73;2.80;;;;;;;19.83;61.32;96907.72;5032212;28;20111;-62
2021/07/01 06:13:10;;;;;;;12.90;2.78;;;;;;;20.08;60.16;96901.88;5015323;28;20060;-63
2021/07/01 06:15:35;;;;;;;9.32;2.50;;;;;;;20.18;59.30;96907.88;5032510;28;20481;-62
2021/07/01 06:18:02;;;;;;;15.40;3.10;;;;;;;20.30;58.95;96907.34;5033246;28;20087;-62
2021/07/01 06:20:27;;;;;;;11.75;2.65;;;;;;;20.17;59.72;96913.53;5031813;28;20381;-62
2021/07/01 06:22:53;;;;;;;9.23;2.50;;;;;;;20.07;59.25;96911.97;5032443;28;20029;-61
2021/07/01 06:25:19;;;;;;;9.90;2.42;;;;;;;20.05;58.89;96915.91;5045654;28;20036;-61
2021/07/01 06:27:44;;;;;;;14.73;2.63;;;;;;;20.22;59.08;96914.63;5058485;28;20031;-62
2021/07/01 06:30:29;;;;;;;10.68;2.90;;;;;;;20.33;58.97;96915.97;5057984;28;20028;-61
2021/07/01 06:32:55;;;;;;;9.60;2.60;;;;;;;20.55;58.72;96919.56;5044299;28;20040;-61
2021/07/01 06:35:24;;;;;;;12.68;3.08;;;;;;;20.71;58.19;96914.84;5054226;28;20032;-61
2021/07/01 06:37:52;;;;;;;8.65;2.40;;;;;;;20.77;57.08;96911.34;5058347;28;20032;-62
2021/07/01 06:40:18;;;;;;;9.20;2.42;;;;;;;20.89;56.53;96920.69;5072372;28;20468;-61
2021/07/01 06:42:47;;;;;;;12.00;2.33;;;;;;;20.95;55.80;96919.06;5049373;28;20048;-61
2021/07/01 06:45:13;;;;;;;9.70;2.70;;;;;;;21.03;55.76;96921.63;5034926;28;20492;-62
2021/07/01 06:47:43;;;;;;;14.35;3.17;;;;;;;21.11;55.26;96922.50;5038569;28;20048;-61
2021/07/01 06:50:10;;;;;;;10.70;2.55;;;;;;;21.10;55.90;96915.34;5043817;28;20395;-61
2021/07/01 06:52:35;;;;;;;9.55;2.45;;;;;;;21.16;54.87;96918.13;5044202;28;20404;-61
2021/07/01 06:55:01;;;;;;;9.80;2.45;;;;;;;21.21;55.05;96923.81;5045393;28;20033;-61
2021/07/01 06:57:27;;;;;;;13.02;3.08;;;;;;;21.25;55.18;96921.53;5051627;28;20087;-61
2021/07/01 06:59:53;;;;;;;13.30;2.92;;;;;;;21.23;55.34;96921.75;5054303;28;20128;-61
2021/07/01 07:02:19;;;;;;;11.73;2.47;;;;;;;21.17;55.22;96919.81;5056469;28;20461;-61
2021/07/01 07:04:45;;;;;;;9.75;2.55;;;;;;;21.31;55.18;96922.63;5057398;28;20459;-61
2021/07/01 07:07:10;;;;;;;9.93;2.75;;;;;;;21.35;54.89;96927.50;5050870;28;20025;-60
2021/07/01 07:09:37;;;;;;;22.63;2.90;;;;;;;21.37;54.63;96927.28;5066098;28;20112;-61
2021/07/01 07:12:03;;;;;;;9.60;2.75;;;;;;;21.52;54.69;96927.16;5055694;28;20536;-61
2021/07/01 07:14:28;;;;;;;9.00;2.65;;;;;;;21.46;53.79;96923.34;5066557;28;20029;-61
2021/07/01 07:16:57;;;;;;;12.10;2.83;;;;;;;21.55;54.25;96918.56;5054033;28;20032;-61
2021/07/01 07:19:22;;;;;;;9.57;2.25;;;;;;;21.54;54.33;96933.31;5043151;28;20110;-61
2021/07/01 07:21:51;;;;;;;9.07;2.40;;;;;;;21.64;53.88;96935.66;5034821;28;20120;-61
2021/07/01 07:24:16;;;;;;;12.18;3.03;;;;;;;21.71;53.56;96934.66;5049877;28;20025;-60
2021/07/01 07:26:42;;;;;;;11.15;2.90;;;;;;;21.71;54.45;96939.25;5068398;28;20025;-61
2021/07/01 07:29:08;;;;;;;8.60;2.50;;;;;;;21.76;54.02;96931.28;5065656;28;20024;-60
2021/07/01 07:31:38;;;;;;;9.32;2.50;;;;;;;21.82;53.40;96930.47;5061016;28;20017;-60
2021/07/01 07:34:04;;;;;;;12.30;2.58;;;;;;;21.81;53.20;96931.53;5071432;28;20126;-60
2021/07/01 07:36:30;;;;;;;11.60;2.70;;;;;;;21.85;53.20;96929.22;5045972;28;20025;-60
2021/07/01 07:38:56;;;;;;;8.60;2.40;;;;;;;21.86;53.12;96923.53;5057012;28;20465;-60
2021/07/01 07:41:22;;;;;;;12.23;2.72;;;;;;;21.92;53.57;96927.34;5068654;28;20043;-60
2021/07/01 07:43:49;;;;;;;12.73;2.60;;;;;;;21.96;52.49;96934.09;5059089;28;20061;-60
2021/07/01 07:46:17;;;;;;;11.85;3.42;;;;;;;22.04;52.71;96933.91;5070894;28;20017;-60
2021/07/01 07:48:43;;;;;;;12.18;2.83;;;;;;;22.10;52.18;96931.38;5052045;28;20033;-61
2021/07/01 07:51:09;;;;;;;8.70;2.70;;;;;;;22.15;51.52;96934.34;5061003;28;20043;-61
2021/07/01 07:53:35;;;;;;;9.88;2.35;;;;;;;21.95;50.55;96931.56;5060673;28;20511;-61
2021/07/01 07:56:06;;;;;;;10.10;2.60;;;;;;;21.92;51.30;96923.78;5056165;28;20056;-61
2021/07/01 07:58:34;;;;;;;9.00;2.47;;;;;;;22.09;51.57;96930.56;5061538;28;20033;-62
2021/07/01 08:01:00;;;;;;;8.95;2.80;;;;;;;22.21;50.90;96919.84;5064379;28;20039;-62
2021/07/01 08:03:29;;;;;;;9.75;2.30;;;;;;;22.34;50.07;96919.00;5062612;28;20039;-61
2021/07/01 08:05:55;;;;;;;9.30;2.42;;;;;;;22.17;50.91;96913.09;5062985;28;20491;-62
2021/07/01 08:08:22;;;;;;;8.05;2.40;;;;;;;22.26;50.77;96914.59;5042226;28;20025;-62
2021/07/01 08:10:48;;;;;;;8.65;2.85;;;;;;;22.27;50.50;96921.72;5043242;28;20021;-61
2021/07/01 08:13:14;;;;;;;8.68;2.55;;;;;;;22.36;50.52;96922.41;5034195;28;20026;-61
2021/07/01 08:15:40;;;;;;;7.43;2.60;;;;;;;22.48;50.69;96915.25;5035552;28;20025;-60
2021/07/01 08:18:07;;;;;;;7.53;2.47;;;;;;;22.63;49.80;96922.44;5035399;28;20026;-60
2021/07/01 08:20:32;;;;;;;9.30;2.45;;;;;;;22.51;48.97;96919.47;5034485;28;20112;-61
2021/07/01 08:22:58;;;;;;;8.88;2.67;;;;;;;22.58;48.93;96920.31;5036659;28;20108;-60
2021/07/01 08:25:26;;;;;;;9.35;2.30;;;;;;;22.74;49.42;96919.91;5051880;28;20257;-60
2021/07/01 08:27:53;;;;;;;7.88;2.50;;;;;;;22.74;49.04;96916.31;5045969;28;20122;-60
2021/07/01 08:30:21;;;;;;;8.05;2.60;;;;;;;22.81;48.58;96916.31;5038786;28;20033;-60
2021/07/01 08:32:50;;;;;;;6.32;1.98;;;;;;;22.86;48.30;96917.38;5040994;28;20040;-60
2021/07/01 08:35:20;;;;;;;8.15;2.45;;;;;;;22.93;47.97;96913.78;5042125;28;20022;-59
2021/07/01 08:37:47;;;;;;;7.67;2.50;;;;;;;23.01;47.66;96906.19;5044825;28;20108;-60
2021/07/01 08:40:17;;;;;;;7.28;2.38;;;;;;;23.00;47.29;96918.19;5046907;28;20278;-59
2021/07/01 08:42:43;;;;;;;5.97;2.00;;;;;;;22.86;47.30;96919.25;5050104;28;20456;-60
2021/07/01 08:45:14;;;;;;;6.32;2.42;;;;;;;22.94;47.53;96918.22;5049126;28;20033;-59
2021/07/01 08:47:41;;;;;;;7.85;2.33;;;;;;;23.03;47.20;96922.41;5040294;28;20087;-60
2021/07/01 08:50:16;;;;;;;7.20;2.35;;;;;;;23.23;47.17;96927.91;5033736;28;20022;-59
2021/07/01 08:53:00;;;;;;;6.13;2.20;;;;;;;23.37;45.95;96920.47;5040441;28;20029;-60
2021/07/01 08:55:27;;;;;;;7.57;2.25;;;;;;;23.31;45.68;96926.84;5054570;28;20053;-60
2021/07/01 08:57:54;;;;;;;7.88;1.80;;;;;;;23.27;43.71;96925.56;5051806;28;20039;-60
2021/07/01 09:00:20;;;;;;;9.73;1.90;;;;;;;23.20;44.28;96922.84;5052933;28;20391;-60
2021/07/01 09:03:04;;;;;;;7.35;1.92;;;;;;;23.11;45.16;96921.34;5045055;28;20033;-60
2021/07/01 09:05:34;;;;;;;8.18;1.95;;;;;;;23.22;45.76;96916.09;5037525;28;20447;-59
2021/07/01 09:08:03;;;;;;;8.10;1.88;;;;;;;23.34;45.32;96920.91;5042015;28;20044;-60
2021/07/01 09:10:32;;;;;;;5.95;2.08;;;;;;;23.44;45.04;96913.06;5045854;28;20017;-60
2021/07/01 09:12:59;;;;;;;5.20;1.88;;;;;;;23.53;44.77;96914.53;5046703;28;20044;-60
2021/07/01 09:15:27;;;;;;;4.18;1.83;;;;;;;23.72;44.32;96917.41;5041666;28;20040;-60
2021/07/01 09:17:53;;;;;;;7.53;2.20;;;;;;;23.73;43.62;96911.69;5037671;28;20031;-60
2021/07/01 09:20:20;;;;;;;7.00;1.85;;;;;;;23.52;44.13;96917.50;5054206;28;20029;-60
2021/07/01 09:22:51;;;;;;;8.23;2.10;;;;;;;23.52;44.39;96917.50;5044050;28;20033;-60
2021/07/01 09:25:17;;;;;;;5.18;1.90;;;;;;;23.49;43.16;96920.66;5042269;28;20389;-60
2021/07/01 09:27:48;;;;;;;8.13;2.15;;;;;;;23.31;43.79;96922.16;5036218;28;20064;-60
2021/07/01 09:30:15;;;;;;;6.95;2.10;;;;;;;23.34;44.13;96923.66;5034136;28;20038;-60
2021/07/01 09:32:42;;;;;;;7.60;1.98;;;;;;;23.53;43.63;96922.75;5045967;28;20036;-60
2021/07/01 09:35:11;;;;;;;6.47;2.03;;;;;;;23.48;42.18;96919.81;5036298;28;20030;-60
2021/07/01 09:37:45;;;;;;;7.38;1.90;;;;;;;23.55;42.88;96931.59;5031084;28;20587;-59
2021/07/01 09:40:13;;;;;;;8.40;2.20;;;;;;;23.75;43.03;96916.97;5051200;28;20013;-60
2021/07/01 09:42:39;;;;;;;6.78;1.92;;;;;;;23.95;42.44;96919.66;5035837;28;20049;-59
2021/07/01 09:45:08;;;;;;;6.25;2.00;;;;;;;24.03;42.40;96918.56;5053800;28;20029;-59
2021/07/01 09:47:44;;;;;;;7.05;2.00;;;;;;;23.77;42.93;96919.50;5044531;28;20040;-60
2021/07/01 09:50:10;;;;;;;6.43;2.17;;;;;;;23.84;42.70;96912.91;5040970;28;20036;-59
2021/07/01 09:52:41;;;;;;;5.57;2.10;;;;;;;24.03;43.92;96911.16;5039181;28;20029;-60
2021/07/01 09:55:07;;;;;;;;;;;;;;;24.01;41.23;96905.06;5046997;28;20044;-59
2021/07/01 09:57:39;;;;;;;5.38;1.80;;;;;;;24.01;42.06;96901.44;5085818;28;20380;-60
2021/07/01 10:00:10;;;;;;;6.85;1.92;;;;;;;24.03;41.52;96907.56;5046923;28;20504;-60
2021/07/01 10:02:36;;;;;;;;;;;;;;;24.23;41.78;96912.94;5047750;28;20111;-60
2021/07/01 10:05:03;;;;;;;4.70;1.58;;;;;;;24.21;42.00;96912.31;5019698;28;19948;-61
2021/07/01 10:07:29;;;;;;;5.10;1.95;;;;;;;24.19;41.06;96900.72;5040310;28;20025;-60
2021/07/01 10:09:56;;;;;;;7.13;1.95;;;;;;;24.32;41.27;96899.75;5032302;28;20048;-60
2021/07/01 10:12:23;;;;;;;6.68;2.10;;;;;;;24.43;41.21;96898.25;5036892;28;20025;-60
2021/07/01 10:14:50;;;;;;;5.10;2.00;;;;;;;24.46;40.52;96901.34;5034328;28;20076;-60
2021/07/01 10:17:18;;;;;;;4.68;1.88;;;;;;;24.35;39.81;96902.09;5037349;28;20487;-61
2021/07/01 10:19:44;;;;;;;4.68;1.90;;;;;;;24.28;38.43;96898.53;5053030;28;20017;-60
2021/07/01 10:22:11;;;;;;;6.90;2.17;;;;;;;24.38;39.84;96890.63;5048715;28;20042;-60
2021/07/01 10:25:07;;;;;;;6.80;1.80;;;;;;;24.55;39.91;96889.03;5045973;28;20039;-60
2021/07/01 10:27:41;;;;;;;4.25;1.70;;;;;;;24.69;39.62;96897.19;5033057;28;20045;-61
2021/07/01 10:30:13;;;;;;;7.07;2.00;;;;;;;24.78;39.68;96890.34;5044175;28;20090;-60
2021/07/01 10:32:41;;;;;;;3.03;1.55;;;;;;;24.67;37.23;96878.19;5053149;28;20481;-59
2021/07/01 10:35:25;;;;;;;3.83;1.58;;;;;;;24.82;37.50;96886.06;5053360;28;20033;-59
2021/07/01 10:38:13;;;;;;;4.90;1.80;;;;;;;24.90;39.08;96874.78;5049627;28;20048;-59
2021/07/01 10:40:46;;;;;;;5.75;1.55;;;;;;;25.04;37.73;96885.66;5052664;28;20033;-59
2021/07/01 10:43:14;;;;;;;5.43;1.40;;;;;;;24.97;33.69;96885.72;5032799;28;20046;-59
2021/07/01 10:46:00;;;;;;;3.58;1.40;;;;;;;24.88;34.12;96882.44;5031715;28;20034;-60
2021/07/01 10:48:26;;;;;;;3.65;1.42;;;;;;;25.13;35.43;96877.97;5046819;28;20123;-59
2021/07/01 10:50:53;;;;;;;3.70;1.95;;;;;;;25.25;34.38;96878.88;5034985;28;20020;-57
2021/07/01 10:53:25;;;;;;;10.65;5.53;;;;;;;25.44;35.66;96866.00;5052640;28;20527;-58
2021/07/01 10:55:52;;;;;;;7.95;3.38;;;;;;;25.56;32.26;96869.66;5053120;28;20021;-58
2021/07/01 10:58:18;;;;;;;3.92;1.40;;;;;;;25.59;31.11;96873.00;5052222;28;20021;-58
2021/07/01 11:00:45;;;;;;;4.85;3.10;;;;;;;25.68;31.30;96871.63;5055360;28;20025;-58
2021/07/01 11:03:18;;;;;;;1.98;1.10;;;;;;;25.82;31.89;96872.31;5056835;28;20516;-59
2021/07/01 11:05:44;;;;;;;1.35;0.88;;;;;;;25.65;30.24;96874.84;5056378;28;20033;-59
2021/07/01 11:08:22;;;;;;;2.80;1.00;;;;;;;25.73;31.21;96864.38;5053048;28;20496;-59
2021/07/01 11:10:48;;;;;;;1.42;1.00;;;;;;;25.77;30.99;96864.72;5069235;28;20038;-58
2021/07/01 11:13:13;;;;;;;2.88;1.10;;;;;;;25.85;31.54;96867.16;5052468;28;20028;-58
2021/07/01 11:16:05;;;;;;;0.80;0.80;;;;;;;25.92;31.89;96871.75;5049870;28;20033;-58
2021/07/01 11:18:38;;;;;;;2.25;0.93;;;;;;;25.88;31.18;96866.72;5056123;28;20515;-58
2021/07/01 11:21:10;;;;;;;1.88;0.90;;;;;;;25.83;31.10;96871.22;5055088;28;20021;-58
2021/07/01 11:23:37;;;;;;;0.80;0.80;;;;;;;25.96;32.81;96868.28;5053696;28;20025;-58
2021/07/01 11:26:04;;;;;;;0.82;0.82;;;;;;;25.94;31.24;96870.44;5054954;28;20762;-58
2021/07/01 11:28:30;;;;;;;2.72;1.27;;;;;;;26.12;32.38;96865.97;5049614;28;20507;-59
2021/07/01 11:31:02;;;;;;;1.52;0.88;;;;;;;26.13;31.84;96862.97;5046839;28;20025;-59